首页
METAR-TAF:

METAR-TAF

机场 :

約翰·甘迺迪國際機場

纽约 / JFK, 紐約州, 美国

纬度: 40-38-19N, 经度: 073-45-44W, 海拔: 3米

当前天气观测

该预报发布于9分钟前的05:34 UTC
风速13节,风向西北
温度 4°C
湿度 93%
气压 1019 hPa
能見度: 16.1公里
多云层高于1700英尺
多云层高于5500英尺
阴天层高于8000英尺
小雨

METAR: KJFK 110534Z 31013KT 10SM -RA BKN017 BKN055 OVC080 04/03 A3010 RMK AO2 P0001 T00440028 $

时间: 00:43 (05:43 UTC)

预报

该预报发布于13分钟前的05:30 UTC
预报有效从11日的 06点(UTC)到 12日的 12点(UTC)
风速14节,风向西转西北
能見度: 9.7公里
散云层高于2000英尺
阴天层高于4000英尺
小雨, 轻雾
短暂存在
从 11日的 06点(UTC)到 11日的 08点(UTC)
能見度: 8.0公里
阴天层高于2000英尺
小雨, 轻雾
从 11日的 0800点(UTC)
风速10节,风向北转西北
能見度: 6.4公里
散云层高于800英尺
阴天层高于2000英尺
小雨, 雪, 轻雾
从 11日的 1000点(UTC)
风速8节,风向北转西北
能見度: 3.2公里
阴天层高于800英尺
小雪, 轻雾
从 11日的 1500点(UTC)
风速6节,风向北转西北
能見度: 10公里
散云层高于800英尺
多云层高于2000英尺
从 11日的 1800点(UTC)
风速9节,风向西
能見度: 10公里
多云层高于3500英尺
从 11日的 2100点(UTC)
风速12节,风向西,有时为22节阵风
能見度: 10公里
散云层高于3500英尺
从 12日的 0400点(UTC)
风速15节,风向西转西北
能見度: 10公里
少量云层高于3500英尺
从 12日的 1000点(UTC)
风速11节,风向北转西北
能見度: 10公里
天空无云

TAF: KJFK 110530Z 1106/1212 30014KT 6SM -RA BR SCT020 OVC040 TEMPO 1106/1108 5SM -RA BR OVC020 FM110800 33010KT 4SM -RASN BR SCT008 OVC020 FM111000 34008KT 2SM -SN BR OVC008 FM111500 33006KT P6SM SCT008 BKN020 FM111800 27009KT P6SM BKN035 FM112100 27012G22KT P6SM SCT035 FM120400 30015KT P6SM FEW035 FM121000 33011KT P6SM SKC

超过4000个机场的气象观测和天气预报(METAR&TAF报告)。

可查询的气象台以黄色和红色小点在地图上表示。

将鼠标移到小点上方,可查看气象台名称。

然后点击查看天气观测和预报。

如需切换地图:点击带黑十字的绿色按钮放大地图;点击带横线的绿色按钮缩小地图;或者点击绿色箭头查看邻近地区的地图。


METAR-TAF: